sensor_id;sensor_type;location;lat;lon;timestamp;pressure;altitude;pressure_sealevel;temperature;humidity
61961;BME280;47923;42.506;24.192;2022-11-06T00:00:27;95128.72;;;7.14;84.75
61961;BME280;47923;42.506;24.192;2022-11-06T00:02:56;95080.66;;;6.97;84.04
61961;BME280;47923;42.506;24.192;2022-11-06T00:05:22;95088.22;;;7.07;83.87
61961;BME280;47923;42.506;24.192;2022-11-06T00:08:06;95171.25;;;7.56;83.14
61961;BME280;47923;42.506;24.192;2022-11-06T00:10:32;95112.59;;;7.14;82.74
61961;BME280;47923;42.506;24.192;2022-11-06T00:12:58;95244.25;;;8.02;83.62
61961;BME280;47923;42.506;24.192;2022-11-06T00:15:24;94803.31;;;5.18;83.65
61961;BME280;47923;42.506;24.192;2022-11-06T00:17:49;95162.69;;;7.66;84.58
61961;BME280;47923;42.506;24.192;2022-11-06T00:20:15;95239.13;;;8.13;84.26
61961;BME280;47923;42.506;24.192;2022-11-06T00:22:41;95166.66;;;7.57;84.01
61961;BME280;47923;42.506;24.192;2022-11-06T00:25:07;95106.34;;;7.26;84.55
61961;BME280;47923;42.506;24.192;2022-11-06T00:27:37;94948.22;;;6.33;84.46
61961;BME280;47923;42.506;24.192;2022-11-06T00:30:05;95120.50;;;7.39;85.13
61961;BME280;47923;42.506;24.192;2022-11-06T00:32:31;95177.63;;;7.95;85.49
61961;BME280;47923;42.506;24.192;2022-11-06T00:34:56;95130.66;;;7.93;86.99
61961;BME280;47923;42.506;24.192;2022-11-06T00:37:22;95155.81;;;8.67;90.89
61961;BME280;47923;42.506;24.192;2022-11-06T00:39:47;95176.66;;;9.28;90.09
61961;BME280;47923;42.506;24.192;2022-11-06T00:42:13;95095.41;;;9.49;87.81
61961;BME280;47923;42.506;24.192;2022-11-06T00:44:38;94979.34;;;9.42;84.11
61961;BME280;47923;42.506;24.192;2022-11-06T00:47:04;95213.09;;;11.05;83.51
61961;BME280;47923;42.506;24.192;2022-11-06T00:49:29;95158.03;;;10.87;82.04
61961;BME280;47923;42.506;24.192;2022-11-06T00:51:55;95092.66;;;10.78;80.57
61961;BME280;47923;42.506;24.192;2022-11-06T00:54:20;95094.59;;;10.77;80.18
61961;BME280;47923;42.506;24.192;2022-11-06T00:56:46;95201.56;;;11.42;80.06
61961;BME280;47923;42.506;24.192;2022-11-06T00:59:12;95183.59;;;11.27;79.62
61961;BME280;47923;42.506;24.192;2022-11-06T01:01:42;95237.66;;;11.57;80.49
61961;BME280;47923;42.506;24.192;2022-11-06T01:04:17;95229.84;;;11.48;80.58
61961;BME280;47923;42.506;24.192;2022-11-06T01:06:45;95161.53;;;10.91;80.75
61961;BME280;47923;42.506;24.192;2022-11-06T01:09:15;95207.19;;;11.30;80.82
61961;BME280;47923;42.506;24.192;2022-11-06T01:11:44;95097.25;;;10.44;81.03
61961;BME280;47923;42.506;24.192;2022-11-06T01:14:12;95193.00;;;11.06;81.66
61961;BME280;47923;42.506;24.192;2022-11-06T01:16:39;95235.06;;;11.34;81.77
61961;BME280;47923;42.506;24.192;2022-11-06T01:19:05;95245.91;;;11.34;81.74
61961;BME280;47923;42.506;24.192;2022-11-06T01:21:36;95149.31;;;10.71;80.52
61961;BME280;47923;42.506;24.192;2022-11-06T01:24:07;94882.44;;;8.54;80.26
61961;BME280;47923;42.506;24.192;2022-11-06T01:26:33;95224.06;;;10.63;80.86
61961;BME280;47923;42.506;24.192;2022-11-06T01:28:59;95137.00;;;9.71;82.12
61961;BME280;47923;42.506;24.192;2022-11-06T01:31:26;95219.78;;;10.13;82.34
61961;BME280;47923;42.506;24.192;2022-11-06T01:33:53;95011.31;;;8.55;83.46
61961;BME280;47923;42.506;24.192;2022-11-06T01:36:20;95003.78;;;8.26;82.86
61961;BME280;47923;42.506;24.192;2022-11-06T01:38:48;95220.47;;;9.64;84.23
61961;BME280;47923;42.506;24.192;2022-11-06T01:41:16;95161.56;;;9.04;84.11
61961;BME280;47923;42.506;24.192;2022-11-06T01:43:49;95212.75;;;9.43;85.13
61961;BME280;47923;42.506;24.192;2022-11-06T01:46:17;95002.25;;;7.90;85.14
61961;BME280;47923;42.506;24.192;2022-11-06T01:48:46;95147.59;;;8.79;85.75
61961;BME280;47923;42.506;24.192;2022-11-06T01:51:14;95244.47;;;9.11;86.68
61961;BME280;47923;42.506;24.192;2022-11-06T01:53:40;95236.56;;;9.02;86.84
61961;BME280;47923;42.506;24.192;2022-11-06T01:56:08;94852.44;;;6.50;86.77
61961;BME280;47923;42.506;24.192;2022-11-06T01:58:37;95124.31;;;8.17;88.03
61961;BME280;47923;42.506;24.192;2022-11-06T02:01:05;95153.53;;;8.18;87.70
61961;BME280;47923;42.506;24.192;2022-11-06T02:03:31;95235.47;;;8.68;88.56
61961;BME280;47923;42.506;24.192;2022-11-06T02:05:57;95076.72;;;7.70;88.20
61961;BME280;47923;42.506;24.192;2022-11-06T02:08:23;95048.72;;;7.39;87.15
61961;BME280;47923;42.506;24.192;2022-11-06T02:10:49;95240.44;;;8.50;87.79
61961;BME280;47923;42.506;24.192;2022-11-06T02:15:54;95174.56;;;8.13;87.73
61961;BME280;47923;42.506;24.192;2022-11-06T02:18:33;94631.81;;;4.42;87.57
61961;BME280;47923;42.506;24.192;2022-11-06T02:21:15;95187.25;;;7.96;87.85
61961;BME280;47923;42.506;24.192;2022-11-06T02:27:17;95213.09;;;8.17;88.72
61961;BME280;47923;42.506;24.192;2022-11-06T02:29:55;95114.47;;;7.42;88.95
61961;BME280;47923;42.506;24.192;2022-11-06T02:34:55;95163.25;;;7.44;88.65
61961;BME280;47923;42.506;24.192;2022-11-06T02:37:28;95074.59;;;6.84;88.47
61961;BME280;47923;42.506;24.192;2022-11-06T02:39:58;95012.47;;;6.42;89.07
61961;BME280;47923;42.506;24.192;2022-11-06T02:42:27;95156.31;;;7.27;88.92
61961;BME280;47923;42.506;24.192;2022-11-06T02:44:54;95165.75;;;7.21;89.37
61961;BME280;47923;42.506;24.192;2022-11-06T02:47:22;95180.34;;;7.08;88.47
61961;BME280;47923;42.506;24.192;2022-11-06T02:49:53;95136.81;;;7.02;87.51
61961;BME280;47923;42.506;24.192;2022-11-06T02:52:26;95234.94;;;7.68;89.31
61961;BME280;47923;42.506;24.192;2022-11-06T02:55:02;95066.88;;;6.55;88.19
61961;BME280;47923;42.506;24.192;2022-11-06T02:57:31;95165.69;;;6.77;87.02
61961;BME280;47923;42.506;24.192;2022-11-06T03:00:04;95236.31;;;7.62;89.46
61961;BME280;47923;42.506;24.192;2022-11-06T03:02:38;95233.59;;;7.62;88.96
61961;BME280;47923;42.506;24.192;2022-11-06T03:08:29;95163.06;;;7.21;89.51
61961;BME280;47923;42.506;24.192;2022-11-06T03:11:08;95166.03;;;7.47;89.06
61961;BME280;47923;42.506;24.192;2022-11-06T03:13:39;95228.19;;;8.06;89.78
61961;BME280;47923;42.506;24.192;2022-11-06T03:17:13;95228.53;;;8.20;88.45
61961;BME280;47923;42.506;24.192;2022-11-06T03:19:31;95226.53;;;8.32;88.36
61961;BME280;47923;42.506;24.192;2022-11-06T03:27:19;94948.03;;;6.70;87.26
61961;BME280;47923;42.506;24.192;2022-11-06T03:30:03;95056.44;;;7.57;86.71
61961;BME280;47923;42.506;24.192;2022-11-06T03:35:42;95226.34;;;8.57;87.86
61961;BME280;47923;42.506;24.192;2022-11-06T03:38:11;95231.38;;;8.58;86.95
61961;BME280;47923;42.506;24.192;2022-11-06T03:40:44;95127.72;;;7.82;86.93
61961;BME280;47923;42.506;24.192;2022-11-06T03:43:14;95093.13;;;7.65;87.98
61961;BME280;47923;42.506;24.192;2022-11-06T03:45:43;94944.09;;;6.52;87.76
61961;BME280;47923;42.506;24.192;2022-11-06T03:48:13;95116.09;;;7.78;87.85
61961;BME280;47923;42.506;24.192;2022-11-06T03:50:48;95172.44;;;8.22;87.67
61961;BME280;47923;42.506;24.192;2022-11-06T03:53:26;95140.53;;;8.04;88.90
61961;BME280;47923;42.506;24.192;2022-11-06T03:56:08;95183.13;;;8.34;88.38
61961;BME280;47923;42.506;24.192;2022-11-06T03:58:38;95128.38;;;8.11;87.79
61961;BME280;47923;42.506;24.192;2022-11-06T04:01:07;95245.03;;;9.01;87.57
61961;BME280;47923;42.506;24.192;2022-11-06T04:03:38;95244.47;;;9.11;87.39
61961;BME280;47923;42.506;24.192;2022-11-06T04:06:14;95251.44;;;9.12;86.83
61961;BME280;47923;42.506;24.192;2022-11-06T04:08:43;95127.81;;;8.52;87.32
61961;BME280;47923;42.506;24.192;2022-11-06T04:11:30;95213.19;;;9.06;86.60
61961;BME280;47923;42.506;24.192;2022-11-06T04:14:19;95238.88;;;9.58;85.87
61961;BME280;47923;42.506;24.192;2022-11-06T04:16:49;95239.41;;;9.67;86.08
61961;BME280;47923;42.506;24.192;2022-11-06T04:19:18;94554.28;;;5.34;85.25
61961;BME280;47923;42.506;24.192;2022-11-06T04:25:00;95188.47;;;9.62;85.70
61961;BME280;47923;42.506;24.192;2022-11-06T04:27:57;95217.66;;;9.99;88.29
61961;BME280;47923;42.506;24.192;2022-11-06T04:30:29;95157.97;;;9.81;90.78
61961;BME280;47923;42.506;24.192;2022-11-06T04:33:02;95235.28;;;10.39;89.61
61961;BME280;47923;42.506;24.192;2022-11-06T04:46:04;95231.78;;;11.18;89.96
61961;BME280;47923;42.506;24.192;2022-11-06T04:48:32;95178.91;;;10.90;89.27
61961;BME280;47923;42.506;24.192;2022-11-06T04:51:01;94364.59;;;5.74;87.99
61961;BME280;47923;42.506;24.192;2022-11-06T04:53:28;95112.69;;;10.73;88.34
61961;BME280;47923;42.506;24.192;2022-11-06T04:56:00;95184.28;;;11.17;87.67
61961;BME280;47923;42.506;24.192;2022-11-06T04:58:26;95222.19;;;11.54;87.43
61961;BME280;47923;42.506;24.192;2022-11-06T05:00:51;95094.84;;;10.65;87.19
61961;BME280;47923;42.506;24.192;2022-11-06T05:03:17;94830.50;;;8.76;86.75
61961;BME280;47923;42.506;24.192;2022-11-06T05:05:43;95104.31;;;10.52;86.78
61961;BME280;47923;42.506;24.192;2022-11-06T05:08:17;95193.09;;;11.14;87.36
61961;BME280;47923;42.506;24.192;2022-11-06T05:10:43;95267.03;;;11.55;86.85
61961;BME280;47923;42.506;24.192;2022-11-06T05:13:09;95165.41;;;10.90;86.41
61961;BME280;47923;42.506;24.192;2022-11-06T05:15:35;95156.53;;;10.93;86.48
61961;BME280;47923;42.506;24.192;2022-11-06T05:18:00;95141.72;;;10.80;86.95
61961;BME280;47923;42.506;24.192;2022-11-06T05:20:26;95113.47;;;10.74;86.31
61961;BME280;47923;42.506;24.192;2022-11-06T05:22:52;94724.97;;;8.21;85.56
61961;BME280;47923;42.506;24.192;2022-11-06T05:25:34;95166.81;;;11.11;86.38
61961;BME280;47923;42.506;24.192;2022-11-06T05:28:01;95253.31;;;11.74;85.45
61961;BME280;47923;42.506;24.192;2022-11-06T05:30:30;95034.63;;;10.35;84.91
61961;BME280;47923;42.506;24.192;2022-11-06T05:32:55;94817.81;;;8.77;84.45
61961;BME280;47923;42.506;24.192;2022-11-06T05:35:21;94828.09;;;8.71;84.58
61961;BME280;47923;42.506;24.192;2022-11-06T05:37:47;95182.84;;;11.26;85.34
61961;BME280;47923;42.506;24.192;2022-11-06T05:40:12;95262.38;;;11.85;84.71
61961;BME280;47923;42.506;24.192;2022-11-06T05:42:39;95112.97;;;10.98;84.43
61961;BME280;47923;42.506;24.192;2022-11-06T05:45:05;95211.09;;;11.66;84.08
61961;BME280;47923;42.506;24.192;2022-11-06T05:47:31;95264.84;;;12.01;84.25
61961;BME280;47923;42.506;24.192;2022-11-06T05:49:57;95084.16;;;10.76;83.25
61961;BME280;47923;42.506;24.192;2022-11-06T05:52:22;95134.06;;;11.19;83.42
61961;BME280;47923;42.506;24.192;2022-11-06T05:54:48;94858.63;;;9.32;83.08
61961;BME280;47923;42.506;24.192;2022-11-06T05:57:13;95217.78;;;11.76;83.46
61961;BME280;47923;42.506;24.192;2022-11-06T05:59:39;94863.50;;;9.49;82.25
61961;BME280;47923;42.506;24.192;2022-11-06T06:02:04;95121.16;;;11.05;82.42
61961;BME280;47923;42.506;24.192;2022-11-06T06:04:30;95187.97;;;11.72;82.08
61961;BME280;47923;42.506;24.192;2022-11-06T06:06:55;95235.03;;;11.98;81.79
61961;BME280;47923;42.506;24.192;2022-11-06T06:09:21;95091.75;;;11.00;81.38
61961;BME280;47923;42.506;24.192;2022-11-06T06:11:50;95272.78;;;12.21;81.20
61961;BME280;47923;42.506;24.192;2022-11-06T06:14:17;95155.56;;;11.39;80.54
61961;BME280;47923;42.506;24.192;2022-11-06T06:16:43;95316.78;;;12.51;80.37
61961;BME280;47923;42.506;24.192;2022-11-06T06:19:08;95254.19;;;12.19;81.19
61961;BME280;47923;42.506;24.192;2022-11-06T06:21:34;95196.53;;;11.78;81.00
61961;BME280;47923;42.506;24.192;2022-11-06T06:24:00;95311.44;;;12.62;81.36
61961;BME280;47923;42.506;24.192;2022-11-06T06:26:26;95207.06;;;11.83;80.88
61961;BME280;47923;42.506;24.192;2022-11-06T06:28:51;95117.94;;;11.26;81.31
61961;BME280;47923;42.506;24.192;2022-11-06T06:31:17;95328.25;;;12.78;80.98
61961;BME280;47923;42.506;24.192;2022-11-06T06:33:42;95186.09;;;11.80;80.37
61961;BME280;47923;42.506;24.192;2022-11-06T06:36:08;95316.31;;;12.86;80.26
61961;BME280;47923;42.506;24.192;2022-11-06T06:38:34;95283.91;;;12.53;80.50
61961;BME280;47923;42.506;24.192;2022-11-06T06:41:04;95218.31;;;12.33;80.16
61961;BME280;47923;42.506;24.192;2022-11-06T06:43:30;95331.59;;;13.09;79.96
61961;BME280;47923;42.506;24.192;2022-11-06T06:45:59;95105.53;;;11.62;80.19
61961;BME280;47923;42.506;24.192;2022-11-06T06:48:25;95110.31;;;11.76;79.38
61961;BME280;47923;42.506;24.192;2022-11-06T06:50:51;95107.03;;;11.56;79.34
61961;BME280;47923;42.506;24.192;2022-11-06T06:53:16;95274.16;;;12.96;78.49
61961;BME280;47923;42.506;24.192;2022-11-06T06:55:42;95255.91;;;12.86;77.81
61961;BME280;47923;42.506;24.192;2022-11-06T06:58:07;95202.59;;;12.53;78.11
61961;BME280;47923;42.506;24.192;2022-11-06T07:00:33;95289.69;;;13.03;78.36
61961;BME280;47923;42.506;24.192;2022-11-06T07:02:58;95353.53;;;13.41;78.34
61961;BME280;47923;42.506;24.192;2022-11-06T07:05:25;95179.63;;;12.32;77.92
61961;BME280;47923;42.506;24.192;2022-11-06T07:07:51;95220.03;;;12.52;77.83
61961;BME280;47923;42.506;24.192;2022-11-06T07:10:16;95313.44;;;13.16;78.23
61961;BME280;47923;42.506;24.192;2022-11-06T07:12:42;95376.53;;;13.65;77.55
61961;BME280;47923;42.506;24.192;2022-11-06T07:15:08;95313.38;;;13.13;77.54
61961;BME280;47923;42.506;24.192;2022-11-06T07:17:33;95268.31;;;12.90;77.77
61961;BME280;47923;42.506;24.192;2022-11-06T07:19:59;95286.94;;;12.99;78.15
61961;BME280;47923;42.506;24.192;2022-11-06T07:22:28;95389.19;;;13.43;78.05
61961;BME280;47923;42.506;24.192;2022-11-06T07:24:53;95324.66;;;13.18;77.53
61961;BME280;47923;42.506;24.192;2022-11-06T07:27:19;95097.59;;;11.80;77.42
61961;BME280;47923;42.506;24.192;2022-11-06T07:29:44;95300.72;;;12.76;77.85
61961;BME280;47923;42.506;24.192;2022-11-06T07:32:10;95306.25;;;12.87;78.36
61961;BME280;47923;42.506;24.192;2022-11-06T07:34:35;95255.69;;;12.57;77.76
61961;BME280;47923;42.506;24.192;2022-11-06T07:37:04;95146.81;;;11.93;76.88
61961;BME280;47923;42.506;24.192;2022-11-06T07:39:29;95284.72;;;12.60;78.10
61961;BME280;47923;42.506;24.192;2022-11-06T07:41:55;95311.78;;;13.01;77.89
61961;BME280;47923;42.506;24.192;2022-11-06T07:44:20;95243.53;;;12.40;77.82
61961;BME280;47923;42.506;24.192;2022-11-06T07:46:46;95382.28;;;13.52;77.06
61961;BME280;47923;42.506;24.192;2022-11-06T07:49:14;95269.41;;;12.79;77.31
61961;BME280;47923;42.506;24.192;2022-11-06T07:51:41;95414.50;;;13.58;76.63
61961;BME280;47923;42.506;24.192;2022-11-06T07:54:07;95300.88;;;12.97;76.43
61961;BME280;47923;42.506;24.192;2022-11-06T07:56:33;95309.38;;;12.92;76.50
61961;BME280;47923;42.506;24.192;2022-11-06T07:58:58;95278.28;;;12.31;77.17
61961;BME280;47923;42.506;24.192;2022-11-06T08:01:24;95412.78;;;13.35;77.31
61961;BME280;47923;42.506;24.192;2022-11-06T08:03:49;95319.25;;;12.67;77.67
61961;BME280;47923;42.506;24.192;2022-11-06T08:06:15;95038.28;;;11.17;76.68
61961;BME280;47923;42.506;24.192;2022-11-06T08:08:41;95321.25;;;12.77;77.42
61961;BME280;47923;42.506;24.192;2022-11-06T08:11:08;95380.91;;;13.21;77.41
61961;BME280;47923;42.506;24.192;2022-11-06T08:13:34;95247.88;;;12.49;77.30
61961;BME280;47923;42.506;24.192;2022-11-06T08:16:08;95213.00;;;12.43;78.06
61961;BME280;47923;42.506;24.192;2022-11-06T08:18:35;95406.34;;;13.58;79.21
61961;BME280;47923;42.506;24.192;2022-11-06T08:21:00;95289.94;;;12.83;80.00
61961;BME280;47923;42.506;24.192;2022-11-06T08:23:26;95402.06;;;13.57;79.99
61961;BME280;47923;42.506;24.192;2022-11-06T08:25:56;95163.97;;;12.11;80.09
61961;BME280;47923;42.506;24.192;2022-11-06T08:28:22;95338.19;;;13.11;80.14
61961;BME280;47923;42.506;24.192;2022-11-06T08:30:48;95409.06;;;13.58;80.08
61961;BME280;47923;42.506;24.192;2022-11-06T08:33:13;95295.47;;;12.94;78.94
61961;BME280;47923;42.506;24.192;2022-11-06T08:35:39;95384.88;;;13.35;78.37
61961;BME280;47923;42.506;24.192;2022-11-06T08:38:04;95340.88;;;13.08;78.18
61961;BME280;47923;42.506;24.192;2022-11-06T08:40:30;95078.69;;;11.43;77.95
61961;BME280;47923;42.506;24.192;2022-11-06T08:43:01;95319.50;;;12.99;79.20
61961;BME280;47923;42.506;24.192;2022-11-06T08:45:27;95263.38;;;12.52;80.02
61961;BME280;47923;42.506;24.192;2022-11-06T08:47:53;95305.50;;;12.45;82.69
61961;BME280;47923;42.506;24.192;2022-11-06T08:50:18;95375.84;;;12.72;84.63
61961;BME280;47923;42.506;24.192;2022-11-06T08:52:43;95275.91;;;11.85;85.77
61961;BME280;47923;42.506;24.192;2022-11-06T08:55:09;95312.91;;;11.78;87.15
61961;BME280;47923;42.506;24.192;2022-11-06T08:57:34;95438.56;;;12.37;87.87
61961;BME280;47923;42.506;24.192;2022-11-06T09:00:00;95317.97;;;11.49;89.01
61961;BME280;47923;42.506;24.192;2022-11-06T09:02:25;95452.69;;;12.20;88.73
61961;BME280;47923;42.506;24.192;2022-11-06T09:04:51;95227.81;;;10.29;88.69
61961;BME280;47923;42.506;24.192;2022-11-06T09:07:16;95067.09;;;9.39;88.05
61961;BME280;47923;42.506;24.192;2022-11-06T09:09:42;95335.72;;;11.20;89.14
61961;BME280;47923;42.506;24.192;2022-11-06T09:12:07;95377.56;;;11.30;89.18
61961;BME280;47923;42.506;24.192;2022-11-06T09:14:33;95461.97;;;11.66;88.69
61961;BME280;47923;42.506;24.192;2022-11-06T09:16:59;95280.97;;;10.05;89.64
61961;BME280;47923;42.506;24.192;2022-11-06T09:19:25;95330.41;;;10.51;90.63
61961;BME280;47923;42.506;24.192;2022-11-06T09:21:50;95479.63;;;11.33;91.23
61961;BME280;47923;42.506;24.192;2022-11-06T09:24:16;95467.97;;;11.29;92.26
61961;BME280;47923;42.506;24.192;2022-11-06T09:26:41;95387.03;;;10.67;92.70
61961;BME280;47923;42.506;24.192;2022-11-06T09:29:07;95083.00;;;8.44;92.80
61961;BME280;47923;42.506;24.192;2022-11-06T09:31:32;95394.09;;;10.75;93.64
61961;BME280;47923;42.506;24.192;2022-11-06T09:33:58;95466.47;;;11.31;94.54
61961;BME280;47923;42.506;24.192;2022-11-06T09:36:23;95326.56;;;10.52;94.57
61961;BME280;47923;42.506;24.192;2022-11-06T09:38:49;95458.59;;;11.46;94.67
61961;BME280;47923;42.506;24.192;2022-11-06T09:41:24;95466.59;;;11.65;94.28
61961;BME280;47923;42.506;24.192;2022-11-06T09:46:44;95103.25;;;9.35;93.21
61961;BME280;47923;42.506;24.192;2022-11-06T09:54:24;95412.63;;;11.23;92.59
61961;BME280;47923;42.506;24.192;2022-11-06T09:56:57;95441.41;;;11.34;92.96
61961;BME280;47923;42.506;24.192;2022-11-06T09:59:24;95460.78;;;11.63;93.37
61961;BME280;47923;42.506;24.192;2022-11-06T10:01:53;95393.28;;;11.21;93.29
61961;BME280;47923;42.506;24.192;2022-11-06T10:04:50;95519.31;;;11.98;92.53
61961;BME280;47923;42.506;24.192;2022-11-06T10:07:30;95472.13;;;11.72;92.96
61961;BME280;47923;42.506;24.192;2022-11-06T10:09:57;95510.25;;;12.13;91.52
61961;BME280;47923;42.506;24.192;2022-11-06T10:12:52;95480.28;;;12.02;90.95
61961;BME280;47923;42.506;24.192;2022-11-06T10:15:33;95419.44;;;11.66;89.93
61961;BME280;47923;42.506;24.192;2022-11-06T10:21:10;95399.78;;;11.69;90.04
61961;BME280;47923;42.506;24.192;2022-11-06T10:26:40;95424.31;;;12.10;89.10
61961;BME280;47923;42.506;24.192;2022-11-06T10:29:14;95492.44;;;12.42;88.92
61961;BME280;47923;42.506;24.192;2022-11-06T10:32:12;95311.59;;;11.34;89.26
61961;BME280;47923;42.506;24.192;2022-11-06T10:34:56;95440.88;;;12.35;88.75
61961;BME280;47923;42.506;24.192;2022-11-06T10:37:30;95215.13;;;11.16;88.57
61961;BME280;47923;42.506;24.192;2022-11-06T10:39:57;95463.13;;;12.92;87.35
61961;BME280;47923;42.506;24.192;2022-11-06T10:42:29;95361.44;;;12.64;87.17
61961;BME280;47923;42.506;24.192;2022-11-06T10:44:57;95394.19;;;12.89;85.84
61961;BME280;47923;42.506;24.192;2022-11-06T10:47:29;95311.13;;;12.67;84.21
61961;BME280;47923;42.506;24.192;2022-11-06T10:49:58;95286.41;;;12.31;83.12
61961;BME280;47923;42.506;24.192;2022-11-06T10:52:36;95481.84;;;13.41;83.65
61961;BME280;47923;42.506;24.192;2022-11-06T10:57:58;95468.22;;;13.89;81.81
61961;BME280;47923;42.506;24.192;2022-11-06T11:00:25;95447.41;;;14.15;80.89
61961;BME280;47923;42.506;24.192;2022-11-06T11:02:57;95380.41;;;13.64;79.93
61961;BME280;47923;42.506;24.192;2022-11-06T11:05:25;95294.44;;;13.16;79.15
61961;BME280;47923;42.506;24.192;2022-11-06T11:07:51;95310.56;;;13.53;79.61
61961;BME280;47923;42.506;24.192;2022-11-06T11:10:35;95294.34;;;13.71;77.13
61961;BME280;47923;42.506;24.192;2022-11-06T11:13:04;95453.13;;;14.89;77.26
61961;BME280;47923;42.506;24.192;2022-11-06T11:15:32;95346.94;;;14.32;76.43
61961;BME280;47923;42.506;24.192;2022-11-06T11:18:23;95422.84;;;15.34;76.45
61961;BME280;47923;42.506;24.192;2022-11-06T11:21:25;95406.91;;;15.57;75.11
61961;BME280;47923;42.506;24.192;2022-11-06T11:24:12;95404.94;;;15.54;73.55
61961;BME280;47923;42.506;24.192;2022-11-06T11:26:45;95337.34;;;15.20;73.65
61961;BME280;47923;42.506;24.192;2022-11-06T11:29:15;95401.84;;;15.70;73.65
61961;BME280;47923;42.506;24.192;2022-11-06T11:31:45;95422.44;;;15.71;72.23
61961;BME280;47923;42.506;24.192;2022-11-06T11:34:20;95413.50;;;15.63;72.57
61961;BME280;47923;42.506;24.192;2022-11-06T11:36:49;95429.47;;;15.58;72.51
61961;BME280;47923;42.506;24.192;2022-11-06T11:39:16;95439.19;;;15.62;71.48
61961;BME280;47923;42.506;24.192;2022-11-06T11:41:42;95378.53;;;15.37;72.93
61961;BME280;47923;42.506;24.192;2022-11-06T11:44:14;95433.34;;;15.71;74.11
61961;BME280;47923;42.506;24.192;2022-11-06T11:46:52;94539.69;;;9.68;73.26
61961;BME280;47923;42.506;24.192;2022-11-06T11:49:29;95394.47;;;15.45;71.90
61961;BME280;47923;42.506;24.192;2022-11-06T11:52:02;95414.28;;;15.49;72.42
61961;BME280;47923;42.506;24.192;2022-11-06T11:54:33;95407.69;;;15.51;72.72
61961;BME280;47923;42.506;24.192;2022-11-06T11:57:00;95422.06;;;15.44;73.52
61961;BME280;47923;42.506;24.192;2022-11-06T11:59:45;95266.25;;;14.47;73.94
61961;BME280;47923;42.506;24.192;2022-11-06T12:04:46;95331.91;;;14.96;73.78
61961;BME280;47923;42.506;24.192;2022-11-06T12:07:28;95228.50;;;14.17;73.66
61961;BME280;47923;42.506;24.192;2022-11-06T12:09:55;95341.22;;;15.12;73.68
61961;BME280;47923;42.506;24.192;2022-11-06T12:12:33;95385.53;;;15.31;71.11
61961;BME280;47923;42.506;24.192;2022-11-06T12:17:43;95396.03;;;15.18;70.79
61961;BME280;47923;42.506;24.192;2022-11-06T12:20:15;95404.97;;;15.15;71.31
61961;BME280;47923;42.506;24.192;2022-11-06T12:22:44;95323.72;;;14.67;71.03
61961;BME280;47923;42.506;24.192;2022-11-06T12:25:21;95415.06;;;15.18;71.83
61961;BME280;47923;42.506;24.192;2022-11-06T12:27:59;95180.72;;;13.63;73.24
61961;BME280;47923;42.506;24.192;2022-11-06T12:30:26;95236.22;;;13.87;74.88
61961;BME280;47923;42.506;24.192;2022-11-06T12:33:05;95402.66;;;15.06;73.37
61961;BME280;47923;42.506;24.192;2022-11-06T12:35:54;95293.75;;;14.28;74.04
61961;BME280;47923;42.506;24.192;2022-11-06T12:41:14;95390.16;;;14.66;73.82
61961;BME280;47923;42.506;24.192;2022-11-06T12:43:48;95359.34;;;14.26;74.37
61961;BME280;47923;42.506;24.192;2022-11-06T12:46:30;95127.25;;;12.72;72.70
61961;BME280;47923;42.506;24.192;2022-11-06T12:51:41;95419.19;;;14.44;74.89
61961;BME280;47923;42.506;24.192;2022-11-06T12:57:34;95424.16;;;14.24;76.82
61961;BME280;47923;42.506;24.192;2022-11-06T13:02:48;95437.34;;;14.22;77.97
61961;BME280;47923;42.506;24.192;2022-11-06T13:08:20;95425.63;;;14.04;78.10
61961;BME280;47923;42.506;24.192;2022-11-06T13:16:27;95366.06;;;13.63;79.00
61961;BME280;47923;42.506;24.192;2022-11-06T13:19:00;95313.91;;;13.29;79.15
61961;BME280;47923;42.506;24.192;2022-11-06T13:24:09;95377.75;;;13.74;80.28
61961;BME280;47923;42.506;24.192;2022-11-06T13:26:44;95410.03;;;13.94;80.14
61961;BME280;47923;42.506;24.192;2022-11-06T13:29:14;95283.94;;;13.08;79.40
61961;BME280;47923;42.506;24.192;2022-11-06T13:31:53;95116.44;;;12.14;80.26
61961;BME280;47923;42.506;24.192;2022-11-06T13:34:34;94924.81;;;10.83;79.82
61961;BME280;47923;42.506;24.192;2022-11-06T13:37:05;95330.94;;;13.26;80.08
61961;BME280;47923;42.506;24.192;2022-11-06T13:39:41;95415.13;;;14.02;80.90
61961;BME280;47923;42.506;24.192;2022-11-06T13:42:26;95425.22;;;14.02;80.79
61961;BME280;47923;42.506;24.192;2022-11-06T13:44:54;95359.38;;;13.50;82.03
61961;BME280;47923;42.506;24.192;2022-11-06T13:47:26;95173.38;;;12.25;81.28
61961;BME280;47923;42.506;24.192;2022-11-06T13:50:57;95418.88;;;13.80;81.63
61961;BME280;47923;42.506;24.192;2022-11-06T13:58:38;95414.22;;;13.77;82.57
61961;BME280;47923;42.506;24.192;2022-11-06T14:07:04;95226.75;;;12.24;83.64
61961;BME280;47923;42.506;24.192;2022-11-06T14:09:33;95430.09;;;13.68;83.85
61961;BME280;47923;42.506;24.192;2022-11-06T14:12:04;95293.09;;;12.92;83.68
61961;BME280;47923;42.506;24.192;2022-11-06T14:14:32;95351.09;;;13.25;82.75
61961;BME280;47923;42.506;24.192;2022-11-06T14:17:09;95412.59;;;13.65;83.07
61961;BME280;47923;42.506;24.192;2022-11-06T14:19:36;95418.81;;;13.66;83.10
61961;BME280;47923;42.506;24.192;2022-11-06T14:24:37;95445.13;;;13.58;83.87
61961;BME280;47923;42.506;24.192;2022-11-06T14:30:03;95413.22;;;13.41;86.12
61961;BME280;47923;42.506;24.192;2022-11-06T14:34:55;95351.38;;;12.68;86.66
61961;BME280;47923;42.506;24.192;2022-11-06T14:42:34;95455.59;;;13.12;86.38
61961;BME280;47923;42.506;24.192;2022-11-06T14:47:37;95103.25;;;10.94;86.15
61961;BME280;47923;42.506;24.192;2022-11-06T14:52:42;95362.72;;;12.40;87.76
61961;BME280;47923;42.506;24.192;2022-11-06T14:55:23;95425.47;;;12.80;87.81